sensor_id;sensor_type;location;lat;lon;timestamp;temperature;humidity
5059;DHT22;2548;52.050;11.036;2022-08-19T00:01:52;20.20;99.90
5059;DHT22;2548;52.050;11.036;2022-08-19T00:04:22;20.20;99.90
5059;DHT22;2548;52.050;11.036;2022-08-19T00:06:50;20.20;99.90
5059;DHT22;2548;52.050;11.036;2022-08-19T00:09:20;20.20;99.90
5059;DHT22;2548;52.050;11.036;2022-08-19T00:11:48;20.20;99.90
5059;DHT22;2548;52.050;11.036;2022-08-19T00:14:16;20.20;99.90
5059;DHT22;2548;52.050;11.036;2022-08-19T00:16:45;20.20;99.90
5059;DHT22;2548;52.050;11.036;2022-08-19T00:19:15;20.20;99.90
5059;DHT22;2548;52.050;11.036;2022-08-19T00:21:43;20.20;99.90
5059;DHT22;2548;52.050;11.036;2022-08-19T00:24:12;20.20;99.90
5059;DHT22;2548;52.050;11.036;2022-08-19T00:26:42;20.20;99.90
5059;DHT22;2548;52.050;11.036;2022-08-19T00:29:11;20.20;99.90
5059;DHT22;2548;52.050;11.036;2022-08-19T00:31:39;20.20;99.90
5059;DHT22;2548;52.050;11.036;2022-08-19T00:34:07;20.20;99.90
5059;DHT22;2548;52.050;11.036;2022-08-19T00:36:36;20.20;99.90
5059;DHT22;2548;52.050;11.036;2022-08-19T00:39:04;20.10;99.90
5059;DHT22;2548;52.050;11.036;2022-08-19T00:41:32;20.10;99.90
5059;DHT22;2548;52.050;11.036;2022-08-19T00:44:02;20.10;99.90
5059;DHT22;2548;52.050;11.036;2022-08-19T00:46:31;20.00;99.90
5059;DHT22;2548;52.050;11.036;2022-08-19T00:49:00;20.00;99.90
5059;DHT22;2548;52.050;11.036;2022-08-19T00:51:29;20.00;99.90
5059;DHT22;2548;52.050;11.036;2022-08-19T00:54:00;20.00;99.90
5059;DHT22;2548;52.050;11.036;2022-08-19T00:56:29;20.10;99.90
5059;DHT22;2548;52.050;11.036;2022-08-19T00:58:58;20.10;99.90
5059;DHT22;2548;52.050;11.036;2022-08-19T01:01:28;20.00;99.90
5059;DHT22;2548;52.050;11.036;2022-08-19T01:03:55;20.00;99.90
5059;DHT22;2548;52.050;11.036;2022-08-19T01:06:22;20.00;99.90
5059;DHT22;2548;52.050;11.036;2022-08-19T01:08:50;20.00;99.90
5059;DHT22;2548;52.050;11.036;2022-08-19T01:11:19;19.90;99.90
5059;DHT22;2548;52.050;11.036;2022-08-19T01:13:46;19.90;99.90
5059;DHT22;2548;52.050;11.036;2022-08-19T01:16:14;19.90;99.90
5059;DHT22;2548;52.050;11.036;2022-08-19T01:18:43;19.90;99.90
5059;DHT22;2548;52.050;11.036;2022-08-19T01:21:16;19.90;99.90
5059;DHT22;2548;52.050;11.036;2022-08-19T01:23:47;19.90;99.90
5059;DHT22;2548;52.050;11.036;2022-08-19T01:26:17;19.90;99.90
5059;DHT22;2548;52.050;11.036;2022-08-19T01:28:47;19.90;99.90
5059;DHT22;2548;52.050;11.036;2022-08-19T01:31:20;19.90;99.90
5059;DHT22;2548;52.050;11.036;2022-08-19T01:33:49;19.90;99.90
5059;DHT22;2548;52.050;11.036;2022-08-19T01:36:31;19.80;99.90
5059;DHT22;2548;52.050;11.036;2022-08-19T01:39:01;19.80;99.90
5059;DHT22;2548;52.050;11.036;2022-08-19T01:41:28;19.80;99.90
5059;DHT22;2548;52.050;11.036;2022-08-19T01:43:56;19.80;99.90
5059;DHT22;2548;52.050;11.036;2022-08-19T01:46:23;19.70;99.90
5059;DHT22;2548;52.050;11.036;2022-08-19T01:48:50;19.80;99.90
5059;DHT22;2548;52.050;11.036;2022-08-19T01:51:18;19.70;99.90
5059;DHT22;2548;52.050;11.036;2022-08-19T01:53:47;19.80;99.90
5059;DHT22;2548;52.050;11.036;2022-08-19T01:56:17;19.80;99.90
5059;DHT22;2548;52.050;11.036;2022-08-19T01:58:49;19.70;99.90
5059;DHT22;2548;52.050;11.036;2022-08-19T02:01:19;19.70;99.90
5059;DHT22;2548;52.050;11.036;2022-08-19T02:03:46;19.70;99.90
5059;DHT22;2548;52.050;11.036;2022-08-19T02:06:14;19.70;99.90
5059;DHT22;2548;52.050;11.036;2022-08-19T02:08:43;19.70;99.90
5059;DHT22;2548;52.050;11.036;2022-08-19T02:11:22;19.80;99.90
5059;DHT22;2548;52.050;11.036;2022-08-19T02:13:50;19.80;99.90
5059;DHT22;2548;52.050;11.036;2022-08-19T02:16:18;19.80;99.90
5059;DHT22;2548;52.050;11.036;2022-08-19T02:18:46;19.80;99.90
5059;DHT22;2548;52.050;11.036;2022-08-19T02:21:14;19.80;99.90
5059;DHT22;2548;52.050;11.036;2022-08-19T02:23:42;19.70;99.90
5059;DHT22;2548;52.050;11.036;2022-08-19T02:26:10;19.70;99.90
5059;DHT22;2548;52.050;11.036;2022-08-19T02:28:40;19.70;99.90
5059;DHT22;2548;52.050;11.036;2022-08-19T02:31:09;19.70;99.90
5059;DHT22;2548;52.050;11.036;2022-08-19T02:33:38;19.70;99.90
5059;DHT22;2548;52.050;11.036;2022-08-19T02:36:06;19.70;99.90
5059;DHT22;2548;52.050;11.036;2022-08-19T02:38:34;19.60;99.90
5059;DHT22;2548;52.050;11.036;2022-08-19T02:41:07;19.70;99.90
5059;DHT22;2548;52.050;11.036;2022-08-19T02:43:36;19.70;99.90
5059;DHT22;2548;52.050;11.036;2022-08-19T02:46:14;19.70;99.90
5059;DHT22;2548;52.050;11.036;2022-08-19T02:48:43;19.60;99.90
5059;DHT22;2548;52.050;11.036;2022-08-19T02:51:16;19.60;99.90
5059;DHT22;2548;52.050;11.036;2022-08-19T02:53:44;19.60;99.90
5059;DHT22;2548;52.050;11.036;2022-08-19T02:56:11;19.60;99.90
5059;DHT22;2548;52.050;11.036;2022-08-19T02:58:39;19.60;99.90
5059;DHT22;2548;52.050;11.036;2022-08-19T03:01:07;19.50;99.90
5059;DHT22;2548;52.050;11.036;2022-08-19T03:03:36;19.50;99.90
5059;DHT22;2548;52.050;11.036;2022-08-19T03:06:06;19.50;99.90
5059;DHT22;2548;52.050;11.036;2022-08-19T03:08:34;19.50;99.90
5059;DHT22;2548;52.050;11.036;2022-08-19T03:11:02;19.50;99.90
5059;DHT22;2548;52.050;11.036;2022-08-19T03:13:30;19.40;99.90
5059;DHT22;2548;52.050;11.036;2022-08-19T03:15:57;19.40;99.90
5059;DHT22;2548;52.050;11.036;2022-08-19T03:18:25;19.40;99.90
5059;DHT22;2548;52.050;11.036;2022-08-19T03:20:53;19.30;99.90
5059;DHT22;2548;52.050;11.036;2022-08-19T03:23:22;19.20;99.90
5059;DHT22;2548;52.050;11.036;2022-08-19T03:25:51;19.20;99.90
5059;DHT22;2548;52.050;11.036;2022-08-19T03:28:20;19.20;99.90
5059;DHT22;2548;52.050;11.036;2022-08-19T03:30:59;19.20;99.90
5059;DHT22;2548;52.050;11.036;2022-08-19T03:33:27;19.20;99.90
5059;DHT22;2548;52.050;11.036;2022-08-19T03:36:11;19.20;99.90
5059;DHT22;2548;52.050;11.036;2022-08-19T03:38:40;19.10;99.90
5059;DHT22;2548;52.050;11.036;2022-08-19T03:41:11;19.10;99.90
5059;DHT22;2548;52.050;11.036;2022-08-19T03:43:40;19.00;99.90
5059;DHT22;2548;52.050;11.036;2022-08-19T03:46:09;19.00;99.90
5059;DHT22;2548;52.050;11.036;2022-08-19T03:48:37;19.00;99.90
5059;DHT22;2548;52.050;11.036;2022-08-19T03:51:06;19.00;99.90
5059;DHT22;2548;52.050;11.036;2022-08-19T03:53:35;19.00;99.90
5059;DHT22;2548;52.050;11.036;2022-08-19T03:56:03;19.00;99.90
5059;DHT22;2548;52.050;11.036;2022-08-19T03:58:30;19.00;99.90
5059;DHT22;2548;52.050;11.036;2022-08-19T04:00:58;19.00;99.90
5059;DHT22;2548;52.050;11.036;2022-08-19T04:03:25;19.00;99.90
5059;DHT22;2548;52.050;11.036;2022-08-19T04:05:53;19.00;99.90
5059;DHT22;2548;52.050;11.036;2022-08-19T04:08:21;18.90;99.90
5059;DHT22;2548;52.050;11.036;2022-08-19T04:10:49;19.00;99.90
5059;DHT22;2548;52.050;11.036;2022-08-19T04:13:17;19.00;99.90
5059;DHT22;2548;52.050;11.036;2022-08-19T04:15:46;18.90;99.90
5059;DHT22;2548;52.050;11.036;2022-08-19T04:18:13;18.90;99.90
5059;DHT22;2548;52.050;11.036;2022-08-19T04:20:43;18.90;99.90
5059;DHT22;2548;52.050;11.036;2022-08-19T04:23:11;18.90;99.90
5059;DHT22;2548;52.050;11.036;2022-08-19T04:25:42;18.80;99.90
5059;DHT22;2548;52.050;11.036;2022-08-19T04:28:12;18.80;99.90
5059;DHT22;2548;52.050;11.036;2022-08-19T04:30:41;18.80;99.90
5059;DHT22;2548;52.050;11.036;2022-08-19T04:33:10;18.70;99.90
5059;DHT22;2548;52.050;11.036;2022-08-19T04:35:39;18.70;99.90
5059;DHT22;2548;52.050;11.036;2022-08-19T04:38:08;18.70;99.90
5059;DHT22;2548;52.050;11.036;2022-08-19T04:40:41;18.70;99.90
5059;DHT22;2548;52.050;11.036;2022-08-19T04:43:27;18.70;99.90
5059;DHT22;2548;52.050;11.036;2022-08-19T04:45:55;18.70;99.90
5059;DHT22;2548;52.050;11.036;2022-08-19T04:48:23;18.70;99.90
5059;DHT22;2548;52.050;11.036;2022-08-19T04:50:53;18.60;99.90
5059;DHT22;2548;52.050;11.036;2022-08-19T04:53:24;18.60;99.90
5059;DHT22;2548;52.050;11.036;2022-08-19T04:55:55;18.70;99.90
5059;DHT22;2548;52.050;11.036;2022-08-19T04:58:23;18.60;99.90
5059;DHT22;2548;52.050;11.036;2022-08-19T05:00:53;18.60;99.90
5059;DHT22;2548;52.050;11.036;2022-08-19T05:03:21;18.60;99.90
5059;DHT22;2548;52.050;11.036;2022-08-19T05:05:48;18.60;99.90
5059;DHT22;2548;52.050;11.036;2022-08-19T05:08:19;18.50;99.90
5059;DHT22;2548;52.050;11.036;2022-08-19T05:10:49;18.50;99.90
5059;DHT22;2548;52.050;11.036;2022-08-19T05:13:18;18.50;99.90
5059;DHT22;2548;52.050;11.036;2022-08-19T05:15:55;18.50;99.90
5059;DHT22;2548;52.050;11.036;2022-08-19T05:18:23;18.50;99.90
5059;DHT22;2548;52.050;11.036;2022-08-19T05:21:08;18.50;99.90
5059;DHT22;2548;52.050;11.036;2022-08-19T05:24:05;18.50;99.90
5059;DHT22;2548;52.050;11.036;2022-08-19T05:26:35;18.50;99.90
5059;DHT22;2548;52.050;11.036;2022-08-19T05:29:02;18.50;99.90
5059;DHT22;2548;52.050;11.036;2022-08-19T05:31:32;18.50;99.90
5059;DHT22;2548;52.050;11.036;2022-08-19T05:33:59;18.50;99.90
5059;DHT22;2548;52.050;11.036;2022-08-19T05:36:28;18.50;99.90
5059;DHT22;2548;52.050;11.036;2022-08-19T05:38:55;18.50;99.90
5059;DHT22;2548;52.050;11.036;2022-08-19T05:41:23;18.50;99.90
5059;DHT22;2548;52.050;11.036;2022-08-19T05:43:56;18.60;99.90
5059;DHT22;2548;52.050;11.036;2022-08-19T05:46:24;18.60;99.90
5059;DHT22;2548;52.050;11.036;2022-08-19T05:48:53;18.60;99.90
5059;DHT22;2548;52.050;11.036;2022-08-19T05:51:22;18.60;99.90
5059;DHT22;2548;52.050;11.036;2022-08-19T05:53:50;18.60;99.90
5059;DHT22;2548;52.050;11.036;2022-08-19T05:56:18;18.60;99.90
5059;DHT22;2548;52.050;11.036;2022-08-19T05:58:46;18.60;99.90
5059;DHT22;2548;52.050;11.036;2022-08-19T06:01:15;18.60;99.90
5059;DHT22;2548;52.050;11.036;2022-08-19T06:03:45;18.60;99.90
5059;DHT22;2548;52.050;11.036;2022-08-19T06:06:16;18.60;99.90
5059;DHT22;2548;52.050;11.036;2022-08-19T06:08:44;18.60;99.90
5059;DHT22;2548;52.050;11.036;2022-08-19T06:11:19;18.60;99.90
5059;DHT22;2548;52.050;11.036;2022-08-19T06:13:48;18.60;99.90
5059;DHT22;2548;52.050;11.036;2022-08-19T06:16:19;18.60;99.90
5059;DHT22;2548;52.050;11.036;2022-08-19T06:18:49;18.60;99.90
5059;DHT22;2548;52.050;11.036;2022-08-19T06:21:20;18.60;99.90
5059;DHT22;2548;52.050;11.036;2022-08-19T06:23:48;18.60;99.90
5059;DHT22;2548;52.050;11.036;2022-08-19T06:26:18;18.60;99.90
5059;DHT22;2548;52.050;11.036;2022-08-19T06:28:47;18.60;99.90
5059;DHT22;2548;52.050;11.036;2022-08-19T06:31:17;18.60;99.90
5059;DHT22;2548;52.050;11.036;2022-08-19T06:33:47;18.60;99.90
5059;DHT22;2548;52.050;11.036;2022-08-19T06:36:20;18.50;99.90
5059;DHT22;2548;52.050;11.036;2022-08-19T06:38:53;18.50;99.90
5059;DHT22;2548;52.050;11.036;2022-08-19T06:41:20;18.50;99.90
5059;DHT22;2548;52.050;11.036;2022-08-19T06:43:48;18.50;99.90
5059;DHT22;2548;52.050;11.036;2022-08-19T06:46:17;18.50;99.90
5059;DHT22;2548;52.050;11.036;2022-08-19T06:48:44;18.40;99.90
5059;DHT22;2548;52.050;11.036;2022-08-19T06:51:13;18.40;99.90
5059;DHT22;2548;52.050;11.036;2022-08-19T06:53:43;18.40;99.90
5059;DHT22;2548;52.050;11.036;2022-08-19T06:56:13;18.40;99.90
5059;DHT22;2548;52.050;11.036;2022-08-19T06:58:41;18.40;99.90
5059;DHT22;2548;52.050;11.036;2022-08-19T07:01:09;18.40;99.90
5059;DHT22;2548;52.050;11.036;2022-08-19T07:03:37;18.40;99.90
5059;DHT22;2548;52.050;11.036;2022-08-19T07:06:06;18.40;99.90
5059;DHT22;2548;52.050;11.036;2022-08-19T07:08:34;18.40;99.90
5059;DHT22;2548;52.050;11.036;2022-08-19T07:11:06;18.40;99.90
5059;DHT22;2548;52.050;11.036;2022-08-19T07:13:34;18.40;99.90
5059;DHT22;2548;52.050;11.036;2022-08-19T07:16:04;18.40;99.90
5059;DHT22;2548;52.050;11.036;2022-08-19T07:18:31;18.40;99.90
5059;DHT22;2548;52.050;11.036;2022-08-19T07:21:03;18.40;99.90
5059;DHT22;2548;52.050;11.036;2022-08-19T07:23:31;18.40;99.90
5059;DHT22;2548;52.050;11.036;2022-08-19T07:26:06;18.40;99.90
5059;DHT22;2548;52.050;11.036;2022-08-19T07:28:34;18.50;99.90
5059;DHT22;2548;52.050;11.036;2022-08-19T07:31:05;18.50;99.90
5059;DHT22;2548;52.050;11.036;2022-08-19T07:33:34;18.50;99.90
5059;DHT22;2548;52.050;11.036;2022-08-19T07:36:03;18.50;99.90
5059;DHT22;2548;52.050;11.036;2022-08-19T07:38:31;18.50;99.90
5059;DHT22;2548;52.050;11.036;2022-08-19T07:40:59;18.50;99.90
5059;DHT22;2548;52.050;11.036;2022-08-19T07:43:28;18.50;99.90
5059;DHT22;2548;52.050;11.036;2022-08-19T07:45:55;18.50;99.90
5059;DHT22;2548;52.050;11.036;2022-08-19T07:48:24;18.50;99.90
5059;DHT22;2548;52.050;11.036;2022-08-19T07:50:52;18.50;99.90
5059;DHT22;2548;52.050;11.036;2022-08-19T07:53:20;18.50;99.90
5059;DHT22;2548;52.050;11.036;2022-08-19T07:55:48;18.50;99.90
5059;DHT22;2548;52.050;11.036;2022-08-19T07:58:20;18.50;99.90
5059;DHT22;2548;52.050;11.036;2022-08-19T08:00:50;18.50;99.90
5059;DHT22;2548;52.050;11.036;2022-08-19T08:03:20;18.50;99.90
5059;DHT22;2548;52.050;11.036;2022-08-19T08:06:07;18.50;99.90
5059;DHT22;2548;52.050;11.036;2022-08-19T08:08:52;18.40;99.90
5059;DHT22;2548;52.050;11.036;2022-08-19T08:11:39;18.40;99.90
5059;DHT22;2548;52.050;11.036;2022-08-19T08:14:06;18.40;99.90
5059;DHT22;2548;52.050;11.036;2022-08-19T08:16:38;18.30;99.90
5059;DHT22;2548;52.050;11.036;2022-08-19T08:19:05;18.40;99.90
5059;DHT22;2548;52.050;11.036;2022-08-19T08:21:33;18.30;99.90
5059;DHT22;2548;52.050;11.036;2022-08-19T08:24:01;18.40;99.90
5059;DHT22;2548;52.050;11.036;2022-08-19T08:26:28;18.40;99.90
5059;DHT22;2548;52.050;11.036;2022-08-19T08:28:56;18.30;99.90
5059;DHT22;2548;52.050;11.036;2022-08-19T08:31:23;18.40;99.90
5059;DHT22;2548;52.050;11.036;2022-08-19T08:33:52;18.30;99.90
5059;DHT22;2548;52.050;11.036;2022-08-19T08:36:20;18.30;99.90
5059;DHT22;2548;52.050;11.036;2022-08-19T08:38:47;18.30;99.90
5059;DHT22;2548;52.050;11.036;2022-08-19T08:41:21;18.40;99.90
5059;DHT22;2548;52.050;11.036;2022-08-19T08:43:51;18.40;99.90
5059;DHT22;2548;52.050;11.036;2022-08-19T08:46:24;18.40;99.90
5059;DHT22;2548;52.050;11.036;2022-08-19T08:48:57;18.40;99.90
5059;DHT22;2548;52.050;11.036;2022-08-19T08:51:28;18.40;99.90
5059;DHT22;2548;52.050;11.036;2022-08-19T08:53:59;18.50;99.90
5059;DHT22;2548;52.050;11.036;2022-08-19T08:56:28;18.50;99.90
5059;DHT22;2548;52.050;11.036;2022-08-19T08:58:59;18.60;99.90
5059;DHT22;2548;52.050;11.036;2022-08-19T09:01:29;18.60;99.90
5059;DHT22;2548;52.050;11.036;2022-08-19T09:03:58;18.60;99.90
5059;DHT22;2548;52.050;11.036;2022-08-19T09:06:32;18.60;99.90
5059;DHT22;2548;52.050;11.036;2022-08-19T09:09:05;18.60;99.90
5059;DHT22;2548;52.050;11.036;2022-08-19T09:11:50;18.60;99.90
5059;DHT22;2548;52.050;11.036;2022-08-19T09:14:30;18.60;99.90
5059;DHT22;2548;52.050;11.036;2022-08-19T09:16:59;18.70;99.90
5059;DHT22;2548;52.050;11.036;2022-08-19T09:19:28;18.70;99.90
5059;DHT22;2548;52.050;11.036;2022-08-19T09:21:55;18.70;99.90
5059;DHT22;2548;52.050;11.036;2022-08-19T09:24:23;18.70;99.90
5059;DHT22;2548;52.050;11.036;2022-08-19T09:26:50;18.80;99.90
5059;DHT22;2548;52.050;11.036;2022-08-19T09:29:18;18.80;99.90
5059;DHT22;2548;52.050;11.036;2022-08-19T09:31:46;18.90;99.90
5059;DHT22;2548;52.050;11.036;2022-08-19T09:34:14;18.90;99.90
5059;DHT22;2548;52.050;11.036;2022-08-19T09:36:42;18.90;99.90
5059;DHT22;2548;52.050;11.036;2022-08-19T09:39:10;19.00;99.90
5059;DHT22;2548;52.050;11.036;2022-08-19T09:41:37;19.00;99.90
5059;DHT22;2548;52.050;11.036;2022-08-19T09:44:05;19.00;99.90
5059;DHT22;2548;52.050;11.036;2022-08-19T09:46:32;19.20;99.90
5059;DHT22;2548;52.050;11.036;2022-08-19T09:49:00;19.20;99.90
5059;DHT22;2548;52.050;11.036;2022-08-19T09:51:28;19.30;99.90
5059;DHT22;2548;52.050;11.036;2022-08-19T09:54:00;19.30;99.90
5059;DHT22;2548;52.050;11.036;2022-08-19T09:56:28;19.40;99.90
5059;DHT22;2548;52.050;11.036;2022-08-19T09:58:58;19.40;99.90
5059;DHT22;2548;52.050;11.036;2022-08-19T10:01:27;19.40;99.90
5059;DHT22;2548;52.050;11.036;2022-08-19T10:03:56;19.40;99.90
5059;DHT22;2548;52.050;11.036;2022-08-19T10:06:27;19.40;99.90
5059;DHT22;2548;52.050;11.036;2022-08-19T10:08:59;19.50;99.90
5059;DHT22;2548;52.050;11.036;2022-08-19T10:11:26;19.50;99.90
5059;DHT22;2548;52.050;11.036;2022-08-19T10:13:55;19.60;99.90
5059;DHT22;2548;52.050;11.036;2022-08-19T10:16:23;19.60;99.90
5059;DHT22;2548;52.050;11.036;2022-08-19T10:18:52;19.70;99.90
5059;DHT22;2548;52.050;11.036;2022-08-19T10:21:22;19.80;99.90
5059;DHT22;2548;52.050;11.036;2022-08-19T10:23:53;20.00;99.90
5059;DHT22;2548;52.050;11.036;2022-08-19T10:26:25;20.10;99.90
5059;DHT22;2548;52.050;11.036;2022-08-19T10:28:52;20.20;99.90
5059;DHT22;2548;52.050;11.036;2022-08-19T10:31:22;20.20;99.90
5059;DHT22;2548;52.050;11.036;2022-08-19T10:33:50;20.30;99.90
5059;DHT22;2548;52.050;11.036;2022-08-19T10:36:23;20.40;99.90
5059;DHT22;2548;52.050;11.036;2022-08-19T10:38:52;20.40;99.90
5059;DHT22;2548;52.050;11.036;2022-08-19T10:41:23;20.40;99.90
5059;DHT22;2548;52.050;11.036;2022-08-19T10:43:51;20.50;99.90
5059;DHT22;2548;52.050;11.036;2022-08-19T10:46:21;20.50;99.90
5059;DHT22;2548;52.050;11.036;2022-08-19T10:48:49;20.50;99.90
5059;DHT22;2548;52.050;11.036;2022-08-19T10:51:17;20.50;99.90
5059;DHT22;2548;52.050;11.036;2022-08-19T10:54:03;20.50;99.90
5059;DHT22;2548;52.050;11.036;2022-08-19T10:56:32;20.50;99.90
5059;DHT22;2548;52.050;11.036;2022-08-19T10:59:18;20.50;99.90
5059;DHT22;2548;52.050;11.036;2022-08-19T11:01:48;20.60;99.90
5059;DHT22;2548;52.050;11.036;2022-08-19T11:04:16;20.80;99.90
5059;DHT22;2548;52.050;11.036;2022-08-19T11:06:45;20.80;99.90
5059;DHT22;2548;52.050;11.036;2022-08-19T11:09:14;20.80;99.90
5059;DHT22;2548;52.050;11.036;2022-08-19T11:11:43;20.90;99.90
5059;DHT22;2548;52.050;11.036;2022-08-19T11:14:13;20.90;99.90
5059;DHT22;2548;52.050;11.036;2022-08-19T11:16:41;20.90;99.90
5059;DHT22;2548;52.050;11.036;2022-08-19T11:19:11;21.00;99.90
5059;DHT22;2548;52.050;11.036;2022-08-19T11:21:41;21.00;99.90
5059;DHT22;2548;52.050;11.036;2022-08-19T11:24:11;21.00;99.90
5059;DHT22;2548;52.050;11.036;2022-08-19T11:26:39;21.10;99.90
5059;DHT22;2548;52.050;11.036;2022-08-19T11:29:11;21.10;99.90
5059;DHT22;2548;52.050;11.036;2022-08-19T11:31:41;21.10;99.90
5059;DHT22;2548;52.050;11.036;2022-08-19T11:34:10;21.10;99.90
5059;DHT22;2548;52.050;11.036;2022-08-19T11:36:39;21.10;99.90
5059;DHT22;2548;52.050;11.036;2022-08-19T11:39:10;21.10;99.90
5059;DHT22;2548;52.050;11.036;2022-08-19T11:41:38;21.10;99.90
5059;DHT22;2548;52.050;11.036;2022-08-19T11:44:06;21.20;99.90
5059;DHT22;2548;52.050;11.036;2022-08-19T11:46:36;21.30;99.90
5059;DHT22;2548;52.050;11.036;2022-08-19T11:49:05;21.40;99.90
5059;DHT22;2548;52.050;11.036;2022-08-19T11:51:33;21.40;99.90
5059;DHT22;2548;52.050;11.036;2022-08-19T11:54:01;21.30;99.90
5059;DHT22;2548;52.050;11.036;2022-08-19T11:56:29;21.30;99.90
5059;DHT22;2548;52.050;11.036;2022-08-19T11:58:57;21.40;99.90
5059;DHT22;2548;52.050;11.036;2022-08-19T12:01:26;21.30;99.90
5059;DHT22;2548;52.050;11.036;2022-08-19T12:03:55;21.40;99.90
5059;DHT22;2548;52.050;11.036;2022-08-19T12:06:26;21.50;99.90
5059;DHT22;2548;52.050;11.036;2022-08-19T12:08:55;21.60;99.90
5059;DHT22;2548;52.050;11.036;2022-08-19T12:11:22;21.70;99.90
5059;DHT22;2548;52.050;11.036;2022-08-19T12:13:50;21.80;99.90
5059;DHT22;2548;52.050;11.036;2022-08-19T12:16:20;21.80;99.90
5059;DHT22;2548;52.050;11.036;2022-08-19T12:18:48;21.90;99.90
5059;DHT22;2548;52.050;11.036;2022-08-19T12:21:20;22.10;99.90
5059;DHT22;2548;52.050;11.036;2022-08-19T12:23:49;22.20;99.90
5059;DHT22;2548;52.050;11.036;2022-08-19T12:26:17;22.20;99.90
5059;DHT22;2548;52.050;11.036;2022-08-19T12:28:44;22.30;99.90
5059;DHT22;2548;52.050;11.036;2022-08-19T12:31:14;22.30;99.90
5059;DHT22;2548;52.050;11.036;2022-08-19T12:33:42;22.30;99.90
5059;DHT22;2548;52.050;11.036;2022-08-19T12:36:11;22.30;99.90
5059;DHT22;2548;52.050;11.036;2022-08-19T12:38:41;22.40;99.90
5059;DHT22;2548;52.050;11.036;2022-08-19T12:41:12;22.40;99.90
5059;DHT22;2548;52.050;11.036;2022-08-19T12:43:40;22.60;99.90
5059;DHT22;2548;52.050;11.036;2022-08-19T12:46:09;22.60;99.90
5059;DHT22;2548;52.050;11.036;2022-08-19T12:48:38;22.70;99.90
5059;DHT22;2548;52.050;11.036;2022-08-19T12:51:09;22.80;99.90
5059;DHT22;2548;52.050;11.036;2022-08-19T12:53:38;22.90;99.90
5059;DHT22;2548;52.050;11.036;2022-08-19T12:56:09;23.00;99.90
5059;DHT22;2548;52.050;11.036;2022-08-19T12:58:37;23.10;99.90
5059;DHT22;2548;52.050;11.036;2022-08-19T13:01:09;23.10;99.90
5059;DHT22;2548;52.050;11.036;2022-08-19T13:03:37;23.00;99.90
5059;DHT22;2548;52.050;11.036;2022-08-19T13:06:05;23.10;99.90
5059;DHT22;2548;52.050;11.036;2022-08-19T13:08:33;23.10;99.90
5059;DHT22;2548;52.050;11.036;2022-08-19T13:11:09;23.20;99.90
5059;DHT22;2548;52.050;11.036;2022-08-19T13:13:39;23.20;99.90
5059;DHT22;2548;52.050;11.036;2022-08-19T13:16:08;23.20;99.90
5059;DHT22;2548;52.050;11.036;2022-08-19T13:18:35;23.30;99.90
5059;DHT22;2548;52.050;11.036;2022-08-19T13:21:04;23.20;99.90
5059;DHT22;2548;52.050;11.036;2022-08-19T13:23:32;23.20;99.90
5059;DHT22;2548;52.050;11.036;2022-08-19T13:26:02;23.30;99.90
5059;DHT22;2548;52.050;11.036;2022-08-19T13:28:32;23.20;99.90
5059;DHT22;2548;52.050;11.036;2022-08-19T13:31:15;23.30;99.90
5059;DHT22;2548;52.050;11.036;2022-08-19T13:34:01;23.30;99.90
5059;DHT22;2548;52.050;11.036;2022-08-19T13:36:28;23.30;99.90
5059;DHT22;2548;52.050;11.036;2022-08-19T13:38:56;23.40;99.90
5059;DHT22;2548;52.050;11.036;2022-08-19T13:41:23;23.40;99.90
5059;DHT22;2548;52.050;11.036;2022-08-19T13:43:52;23.50;99.90
5059;DHT22;2548;52.050;11.036;2022-08-19T13:46:20;23.50;99.90
5059;DHT22;2548;52.050;11.036;2022-08-19T13:48:48;23.60;99.90
5059;DHT22;2548;52.050;11.036;2022-08-19T13:51:16;23.60;99.90
5059;DHT22;2548;52.050;11.036;2022-08-19T13:53:44;23.60;99.90
5059;DHT22;2548;52.050;11.036;2022-08-19T13:56:12;23.60;99.90
5059;DHT22;2548;52.050;11.036;2022-08-19T13:58:40;23.60;99.90
5059;DHT22;2548;52.050;11.036;2022-08-19T14:01:09;23.70;99.90
5059;DHT22;2548;52.050;11.036;2022-08-19T14:03:38;23.90;99.90
5059;DHT22;2548;52.050;11.036;2022-08-19T14:06:05;24.00;99.90
5059;DHT22;2548;52.050;11.036;2022-08-19T14:08:33;24.00;99.90
5059;DHT22;2548;52.050;11.036;2022-08-19T14:11:01;24.10;99.90
5059;DHT22;2548;52.050;11.036;2022-08-19T14:13:28;24.40;99.90
5059;DHT22;2548;52.050;11.036;2022-08-19T14:15:55;24.60;99.90
5059;DHT22;2548;52.050;11.036;2022-08-19T14:18:25;24.70;99.90
5059;DHT22;2548;52.050;11.036;2022-08-19T14:20:52;24.80;99.90
5059;DHT22;2548;52.050;11.036;2022-08-19T14:23:20;24.80;99.90
5059;DHT22;2548;52.050;11.036;2022-08-19T14:25:48;25.00;99.90
5059;DHT22;2548;52.050;11.036;2022-08-19T14:28:15;25.00;99.90
5059;DHT22;2548;52.050;11.036;2022-08-19T14:30:43;24.90;99.90
5059;DHT22;2548;52.050;11.036;2022-08-19T14:33:11;24.90;99.90
5059;DHT22;2548;52.050;11.036;2022-08-19T14:35:41;24.90;99.90
5059;DHT22;2548;52.050;11.036;2022-08-19T14:38:16;24.80;99.90
5059;DHT22;2548;52.050;11.036;2022-08-19T14:40:44;24.70;99.90
5059;DHT22;2548;52.050;11.036;2022-08-19T14:43:12;24.80;99.90
5059;DHT22;2548;52.050;11.036;2022-08-19T14:45:40;25.00;99.90
5059;DHT22;2548;52.050;11.036;2022-08-19T14:48:08;25.20;99.90
5059;DHT22;2548;52.050;11.036;2022-08-19T14:50:36;25.30;99.90
5059;DHT22;2548;52.050;11.036;2022-08-19T14:53:07;25.50;99.90
5059;DHT22;2548;52.050;11.036;2022-08-19T14:55:35;25.70;99.90
5059;DHT22;2548;52.050;11.036;2022-08-19T14:58:03;25.70;99.90
5059;DHT22;2548;52.050;11.036;2022-08-19T15:00:31;25.70;99.90
5059;DHT22;2548;52.050;11.036;2022-08-19T15:02:59;25.70;99.90
5059;DHT22;2548;52.050;11.036;2022-08-19T15:05:26;25.50;99.90
5059;DHT22;2548;52.050;11.036;2022-08-19T15:07:54;25.30;99.90
5059;DHT22;2548;52.050;11.036;2022-08-19T15:10:24;25.20;99.90
5059;DHT22;2548;52.050;11.036;2022-08-19T15:12:51;25.20;99.90
5059;DHT22;2548;52.050;11.036;2022-08-19T15:15:20;25.10;99.90
5059;DHT22;2548;52.050;11.036;2022-08-19T15:17:48;25.10;99.90
5059;DHT22;2548;52.050;11.036;2022-08-19T15:20:19;25.10;99.90
5059;DHT22;2548;52.050;11.036;2022-08-19T15:22:49;25.00;99.90
5059;DHT22;2548;52.050;11.036;2022-08-19T15:25:19;24.80;99.90
5059;DHT22;2548;52.050;11.036;2022-08-19T15:27:48;24.80;99.90
5059;DHT22;2548;52.050;11.036;2022-08-19T15:30:21;24.70;99.90
5059;DHT22;2548;52.050;11.036;2022-08-19T15:32:49;24.50;99.90
5059;DHT22;2548;52.050;11.036;2022-08-19T15:35:19;24.50;99.90
5059;DHT22;2548;52.050;11.036;2022-08-19T15:37:48;24.50;99.90
5059;DHT22;2548;52.050;11.036;2022-08-19T15:40:17;24.40;99.90
5059;DHT22;2548;52.050;11.036;2022-08-19T15:42:46;24.50;99.90
5059;DHT22;2548;52.050;11.036;2022-08-19T15:45:17;24.40;99.90
5059;DHT22;2548;52.050;11.036;2022-08-19T15:47:45;24.40;99.90
5059;DHT22;2548;52.050;11.036;2022-08-19T15:50:15;24.40;99.90
5059;DHT22;2548;52.050;11.036;2022-08-19T15:52:45;24.40;99.90
5059;DHT22;2548;52.050;11.036;2022-08-19T15:55:13;24.40;99.90
5059;DHT22;2548;52.050;11.036;2022-08-19T15:57:41;24.40;99.90
5059;DHT22;2548;52.050;11.036;2022-08-19T16:00:27;24.40;99.90